createdAt,value
2022-08-03T00:00:17.553Z,7.05
2022-08-03T00:02:50.265Z,5.15
2022-08-03T00:05:22.885Z,5.28
2022-08-03T00:07:55.712Z,5.90
2022-08-03T00:10:28.637Z,3.28
2022-08-03T00:13:01.154Z,3.53
2022-08-03T00:15:33.873Z,6.60
2022-08-03T00:18:06.715Z,5.47
2022-08-03T00:20:39.277Z,7.57
2022-08-03T00:23:12.009Z,4.85
2022-08-03T00:25:44.752Z,5.72
2022-08-03T00:28:17.706Z,5.38
2022-08-03T00:30:51.039Z,3.97
2022-08-03T00:33:24.798Z,4.53
2022-08-03T00:36:00.236Z,4.60
2022-08-03T00:38:32.754Z,5.65
2022-08-03T00:41:05.232Z,4.15
2022-08-03T00:43:37.875Z,5.15
2022-08-03T00:46:10.466Z,3.58
2022-08-03T00:48:43.209Z,4.43
2022-08-03T00:51:16.202Z,4.43
2022-08-03T00:53:49.800Z,5.93
2022-08-03T00:56:22.390Z,6.72
2022-08-03T00:58:59.131Z,4.70
2022-08-03T01:01:32.610Z,4.65
2022-08-03T01:04:05.628Z,4.88
2022-08-03T01:06:58.599Z,5.72
2022-08-03T01:09:58.757Z,3.55
2022-08-03T01:12:49.529Z,5.13
2022-08-03T01:15:25.069Z,4.25
2022-08-03T01:18:10.907Z,3.80
2022-08-03T01:20:47.962Z,3.10
2022-08-03T01:23:29.727Z,5.13
2022-08-03T01:26:24.584Z,5.35
2022-08-03T01:29:08.056Z,5.05
2022-08-03T01:32:58.714Z,4.85
2022-08-03T01:35:00.934Z,3.67
2022-08-03T01:38:00.999Z,3.50
2022-08-03T01:40:37.035Z,4.53
2022-08-03T01:43:12.722Z,4.97
2022-08-03T01:45:48.746Z,4.75
2022-08-03T01:48:22.808Z,4.40
2022-08-03T01:50:57.545Z,4.25
2022-08-03T01:53:33.525Z,4.15
2022-08-03T01:56:08.104Z,4.22
2022-08-03T01:58:43.008Z,5.47
2022-08-03T02:01:17.207Z,3.60
2022-08-03T02:04:00.573Z,3.88
2022-08-03T02:06:59.909Z,2.95
2022-08-03T02:09:31.246Z,7.15
2022-08-03T02:12:07.769Z,3.85
2022-08-03T02:14:43.692Z,3.72
2022-08-03T02:17:17.082Z,3.25
2022-08-03T02:19:51.133Z,5.30
2022-08-03T02:22:25.727Z,3.78
2022-08-03T02:24:58.864Z,4.28
2022-08-03T02:27:39.445Z,5.47
2022-08-03T02:30:16.968Z,4.63
2022-08-03T02:32:56.317Z,5.18
2022-08-03T02:35:31.462Z,4.95
2022-08-03T02:38:08.128Z,3.83
2022-08-03T02:40:43.647Z,6.80
2022-08-03T02:43:20.734Z,3.60
2022-08-03T02:45:54.858Z,4.50
2022-08-03T02:48:31.107Z,4.43
2022-08-03T02:51:05.372Z,5.07
2022-08-03T02:53:39.434Z,4.20
2022-08-03T02:56:13.754Z,3.63
2022-08-03T02:58:50.313Z,8.98
2022-08-03T03:01:25.228Z,4.97
2022-08-03T03:03:59.538Z,4.22
2022-08-03T03:06:35.447Z,4.88
2022-08-03T03:09:09.769Z,4.63
2022-08-03T03:11:44.657Z,3.30
2022-08-03T03:14:33.144Z,4.05
2022-08-03T03:17:15.529Z,3.70
2022-08-03T03:19:50.074Z,5.05
2022-08-03T03:22:24.985Z,3.27
2022-08-03T03:24:58.296Z,6.60
2022-08-03T03:27:31.724Z,5.53
2022-08-03T03:30:05.606Z,4.20
2022-08-03T03:32:40.207Z,4.97
2022-08-03T03:35:15.645Z,6.15
2022-08-03T03:40:21.454Z,6.82
2022-08-03T03:42:54.727Z,4.18
2022-08-03T03:45:28.723Z,4.10
2022-08-03T03:48:05.790Z,3.90
2022-08-03T03:50:42.095Z,4.10
2022-08-03T03:53:14.975Z,5.13
2022-08-03T04:04:46.831Z,3.08
2022-08-03T04:10:59.572Z,3.38
2022-08-03T04:14:01.985Z,4.90
2022-08-03T04:16:43.615Z,5.63
2022-08-03T04:19:32.847Z,4.78
2022-08-03T04:22:32.917Z,4.25
2022-08-03T04:25:18.593Z,6.88
2022-08-03T04:28:09.735Z,5.35
2022-08-03T04:31:40.244Z,5.55
2022-08-03T04:34:13.440Z,3.88
2022-08-03T04:36:50.584Z,5.15
2022-08-03T04:39:43.667Z,5.05
2022-08-03T04:42:42.450Z,5.07
2022-08-03T04:46:39.994Z,6.07
2022-08-03T04:49:44.848Z,5.13
2022-08-03T04:52:19.667Z,3.95
2022-08-03T04:54:58.092Z,3.85
2022-08-03T04:57:54.125Z,6.18
2022-08-03T05:00:55.035Z,3.95
2022-08-03T05:03:48.127Z,3.65
2022-08-03T05:06:48.104Z,5.05
2022-08-03T05:09:50.768Z,4.07
2022-08-03T05:12:58.143Z,4.10
2022-08-03T05:28:51.273Z,8.90
2022-08-03T05:31:24.455Z,7.35
2022-08-03T05:33:57.915Z,6.47
2022-08-03T05:36:30.699Z,5.80
2022-08-03T05:39:28.278Z,6.88
2022-08-03T05:42:22.864Z,8.38
2022-08-03T05:44:59.921Z,5.93
2022-08-03T05:47:38.663Z,3.85
2022-08-03T05:51:01.543Z,5.38
2022-08-03T05:53:35.550Z,5.03
2022-08-03T05:57:24.539Z,5.97
2022-08-03T06:00:22.361Z,4.70
2022-08-03T06:02:59.335Z,4.35
2022-08-03T06:06:01.989Z,5.75
2022-08-03T06:09:00.187Z,14.60
2022-08-03T06:11:41.890Z,8.25
2022-08-03T06:15:05.715Z,5.70
2022-08-03T06:18:06.335Z,7.15
2022-08-03T06:20:55.315Z,7.28
2022-08-03T06:23:55.611Z,4.07
2022-08-03T06:26:29.225Z,5.43
2022-08-03T06:30:01.871Z,5.75
2022-08-03T06:32:35.336Z,4.05
2022-08-03T06:35:30.154Z,6.60
2022-08-03T06:39:28.375Z,5.45
2022-08-03T06:42:01.223Z,5.00
2022-08-03T06:44:33.867Z,5.18
2022-08-03T06:47:06.771Z,5.50
2022-08-03T06:49:41.453Z,5.53
2022-08-03T06:52:14.212Z,5.32
2022-08-03T06:55:13.267Z,18.77
2022-08-03T06:57:45.745Z,19.02
2022-08-03T07:00:19.293Z,19.08
2022-08-03T07:02:56.129Z,31.63
2022-08-03T07:05:33.763Z,39.35
2022-08-03T07:08:06.334Z,9.38
2022-08-03T07:10:39.213Z,6.32
2022-08-03T07:13:12.544Z,9.27
2022-08-03T07:15:55.643Z,7.65
2022-08-03T07:18:29.916Z,7.80
2022-08-03T07:21:03.065Z,7.55
2022-08-03T07:23:35.786Z,9.07
2022-08-03T07:26:08.464Z,9.95
2022-08-03T07:28:41.198Z,11.48
2022-08-03T07:31:13.851Z,6.18
2022-08-03T07:33:46.706Z,10.30
2022-08-03T07:36:19.342Z,8.63
2022-08-03T07:38:51.973Z,7.55
2022-08-03T07:41:25.040Z,11.15
2022-08-03T07:43:58.019Z,10.32
2022-08-03T07:46:30.826Z,10.02
2022-08-03T07:49:03.757Z,13.13
2022-08-03T07:51:36.712Z,17.75
2022-08-03T07:54:10.618Z,5.13
2022-08-03T07:56:43.337Z,11.85
2022-08-03T07:59:16.300Z,7.57
2022-08-03T08:01:48.989Z,5.20
2022-08-03T08:04:22.041Z,4.88
2022-08-03T08:06:54.633Z,7.60
2022-08-03T08:09:27.204Z,5.22
2022-08-03T08:12:02.223Z,6.63
2022-08-03T08:14:36.135Z,6.13
2022-08-03T08:17:08.763Z,3.85
2022-08-03T08:19:49.012Z,7.80
2022-08-03T08:22:30.500Z,8.70
2022-08-03T08:25:03.901Z,5.68
2022-08-03T08:28:22.437Z,7.15
2022-08-03T08:30:38.944Z,8.18
2022-08-03T08:33:22.762Z,6.88
2022-08-03T08:35:56.874Z,7.30
2022-08-03T08:38:36.031Z,8.15
2022-08-03T08:41:11.828Z,11.63
2022-08-03T08:43:44.706Z,6.72
2022-08-03T08:46:23.949Z,8.32
2022-08-03T08:48:58.774Z,4.57
2022-08-03T08:51:59.144Z,5.63
2022-08-03T08:54:36.024Z,5.18
2022-08-03T08:57:26.788Z,6.28
2022-08-03T09:00:04.051Z,4.78
2022-08-03T09:02:37.882Z,7.30
2022-08-03T09:05:16.304Z,4.95
2022-08-03T09:07:50.644Z,8.68
2022-08-03T09:10:24.050Z,6.30
2022-08-03T09:12:57.369Z,4.97
2022-08-03T09:15:32.102Z,6.65
2022-08-03T09:18:06.181Z,12.20
2022-08-03T09:20:39.568Z,5.53
2022-08-03T09:23:59.711Z,6.80
2022-08-03T09:26:06.335Z,7.10
2022-08-03T09:28:59.761Z,7.25
2022-08-03T09:31:35.280Z,8.88
2022-08-03T09:34:11.257Z,4.68
2022-08-03T09:36:49.194Z,9.43
2022-08-03T09:39:40.305Z,6.50
2022-08-03T09:42:18.521Z,6.05
2022-08-03T09:44:52.942Z,4.50
2022-08-03T09:47:32.091Z,6.97
2022-08-03T09:50:07.367Z,4.88
2022-08-03T09:56:34.812Z,4.30
2022-08-03T09:58:21.016Z,7.30
2022-08-03T10:01:06.213Z,8.50
2022-08-03T10:04:02.779Z,10.75
2022-08-03T10:06:35.208Z,4.07
2022-08-03T10:09:08.365Z,5.57
2022-08-03T10:11:49.978Z,5.75
2022-08-03T10:14:48.467Z,5.30
2022-08-03T10:17:22.796Z,7.40
2022-08-03T10:19:55.737Z,4.83
2022-08-03T10:22:31.023Z,5.25
2022-08-03T10:25:14.958Z,6.55
2022-08-03T10:28:15.437Z,6.18
2022-08-03T10:44:06.965Z,5.55
2022-08-03T10:47:05.939Z,4.65
2022-08-03T10:51:00.099Z,3.85
2022-08-03T10:54:48.797Z,5.53
2022-08-03T11:07:07.943Z,3.90
2022-08-03T11:14:13.590Z,8.48
2022-08-03T11:17:46.505Z,3.60
2022-08-03T11:21:17.426Z,3.22
2022-08-03T11:28:43.975Z,5.28
2022-08-03T11:31:50.757Z,3.42
2022-08-03T11:35:13.065Z,3.38
2022-08-03T11:38:11.814Z,4.50
2022-08-03T11:49:09.497Z,3.63
2022-08-03T11:51:45.942Z,5.75
2022-08-03T11:54:21.051Z,7.60
2022-08-03T11:59:01.960Z,3.25
2022-08-03T12:06:05.622Z,3.70
2022-08-03T12:27:05.031Z,3.63
2022-08-03T12:29:43.933Z,5.47
2022-08-03T12:33:26.806Z,3.90
2022-08-03T12:36:10.094Z,4.63
2022-08-03T12:38:57.391Z,3.63
2022-08-03T12:45:37.865Z,4.03
2022-08-03T12:48:12.748Z,5.93
2022-08-03T12:50:53.776Z,7.75
2022-08-03T12:53:30.932Z,3.58
2022-08-03T12:56:28.866Z,4.18
2022-08-03T12:59:32.358Z,5.00
2022-08-03T13:02:15.031Z,6.35
2022-08-03T13:04:52.055Z,3.90
2022-08-03T13:07:25.241Z,3.55
2022-08-03T13:14:26.280Z,4.20
2022-08-03T13:16:59.221Z,5.93
2022-08-03T13:19:35.311Z,4.43
2022-08-03T13:22:15.967Z,4.90
2022-08-03T13:24:53.089Z,4.47
2022-08-03T13:28:04.148Z,5.88
2022-08-03T13:30:30.340Z,6.18
2022-08-03T13:33:04.701Z,3.00
2022-08-03T13:35:38.540Z,4.60
2022-08-03T13:38:11.924Z,3.67
2022-08-03T13:40:46.141Z,3.13
2022-08-03T13:43:23.368Z,5.15
2022-08-03T13:45:57.856Z,5.00
2022-08-03T13:48:36.694Z,6.32
2022-08-03T13:51:22.187Z,3.47
2022-08-03T13:53:56.289Z,3.35
2022-08-03T13:56:31.047Z,3.67
2022-08-03T13:59:04.239Z,3.75
2022-08-03T14:01:53.951Z,3.30
2022-08-03T14:04:28.306Z,5.00
2022-08-03T14:07:02.846Z,6.10
2022-08-03T14:09:36.103Z,5.47
2022-08-03T14:12:09.165Z,4.30
2022-08-03T14:14:42.355Z,5.75
2022-08-03T14:17:16.504Z,5.28
2022-08-03T14:19:53.015Z,3.67
2022-08-03T14:22:27.833Z,3.33
2022-08-03T14:25:01.192Z,5.07
2022-08-03T14:27:35.587Z,4.55
2022-08-03T14:30:09.416Z,5.53
2022-08-03T14:32:42.631Z,4.93
2022-08-03T14:35:15.743Z,4.50
2022-08-03T14:37:48.723Z,3.33
2022-08-03T14:40:21.992Z,4.93
2022-08-03T14:42:54.824Z,3.08
2022-08-03T14:45:27.835Z,3.15
2022-08-03T14:50:32.072Z,3.60
2022-08-03T14:50:55.662Z,4.40
2022-08-03T14:53:30.091Z,7.07
2022-08-03T14:56:06.502Z,6.85
2022-08-03T14:58:42.966Z,4.80
2022-08-03T15:02:03.220Z,3.92
2022-08-03T15:04:08.804Z,5.50
2022-08-03T15:06:41.825Z,9.05
2022-08-03T15:09:24.305Z,4.80
2022-08-03T15:11:57.579Z,5.63
2022-08-03T15:14:33.407Z,3.63
2022-08-03T15:17:08.883Z,4.35
2022-08-03T15:20:05.514Z,3.80
2022-08-03T15:22:36.173Z,4.15
2022-08-03T15:26:28.086Z,2.80
2022-08-03T15:28:04.535Z,6.65
2022-08-03T15:30:39.042Z,3.97
2022-08-03T15:33:12.008Z,3.47
2022-08-03T15:35:46.801Z,2.58
